This is the latest recevied weather packets stored in our database for station/object W5COG. If no packets are shown the sender has not sent any weather packets the latest 10 day(s).
| Time | Temp. | Humidity | Pressure | Rain* | Wind** | Luminosity | Snow |
|---|---|---|---|---|---|---|---|
| 1777608626 | 12.78° C | 67% | 1017.9 hPa | 0 mm | - | 0 W/m² | - |
| 1777608326 | 12.22° C | 67% | 1018 hPa | 0 mm | - | 0 W/m² | - |
| 1777607426 | 12.78° C | 67% | 1017.9 hPa | 0 mm | - | 0 W/m² | - |
| 1777607126 | 12.78° C | 65% | 1018 hPa | 0 mm | - | 0 W/m² | - |
| 1777606826 | 12.78° C | 65% | 1017.8 hPa | 0 mm | - | 0 W/m² | - |
| 1777606526 | 13.33° C | 65% | 1017.8 hPa | 0 mm | - | 0 W/m² | - |
| 1777606226 | 13.33° C | 63% | 1017.7 hPa | 0 mm | - | 0 W/m² | - |
| 1777605926 | 13.33° C | 64% | 1017.7 hPa | 0 mm | - | 0 W/m² | - |
| 1777605627 | 13.33° C | 64% | 1017.8 hPa | 0 mm | - | 0 W/m² | - |
| 1777605326 | 13.33° C | 62% | 1017.7 hPa | 0 mm | - | 0 W/m² | - |
| 1777605026 | 13.33° C | 63% | 1017.7 hPa | 0 mm | - | 0 W/m² | - |
| 1777604726 | 13.89° C | 62% | 1017.5 hPa | 0 mm | - | 0 W/m² | - |
| 1777604426 | 13.89° C | 59% | 1017.5 hPa | 0 mm | - | 0 W/m² | - |
| 1777604126 | 13.89° C | 59% | 1017.7 hPa | 0 mm | - | 0 W/m² | - |
| 1777603826 | 13.89° C | 59% | 1017.5 hPa | 0 mm | - | 0 W/m² | - |
| 1777603526 | 14.44° C | 58% | 1017.5 hPa | 0 mm | - | 0 W/m² | - |
| 1777603226 | 14.44° C | 57% | 1017.4 hPa | 0 mm | - | 0 W/m² | - |
| 1777602926 | 14.44° C | 57% | 1017.2 hPa | 0 mm | - | 0 W/m² | - |
| 1777602626 | 14.44° C | 58% | 1017.3 hPa | 0 mm | - | 0 W/m² | - |
| 1777602326 | 14.44° C | 57% | 1017.2 hPa | 0 mm | - | 0 W/m² | - |
| 1777602026 | 15° C | 56% | 1017.1 hPa | 0 mm | - | 0 W/m² | - |
| 1777601726 | 15° C | 55% | 1016.9 hPa | 0 mm | - | 0 W/m² | - |
| 1777583426 | 18.33° C | 47% | 1016 hPa | 0 mm | - | 729 W/m² | - |
| 1777583126 | 18.33° C | 45% | 1016 hPa | 0 mm | - | 723 W/m² | - |
| 1777582226 | 18.33° C | 45% | 1016.1 hPa | 0 mm | - | 466 W/m² | - |
* Rain latest hour (hover to see other rain measurements)
** Current wind speed in m/s (hover to see current wind gust speed)